createdAt,value
2024-03-16T00:00:30.503Z,11.56
2024-03-16T00:03:00.897Z,11.56
2024-03-16T00:05:29.503Z,11.53
2024-03-16T00:07:57.762Z,11.54
2024-03-16T00:10:26.645Z,11.48
2024-03-16T00:12:55.065Z,11.49
2024-03-16T00:15:23.539Z,11.44
2024-03-16T00:17:51.984Z,11.38
2024-03-16T00:20:20.698Z,11.36
2024-03-16T00:22:49.042Z,11.39
2024-03-16T00:25:16.478Z,11.33
2024-03-16T00:27:44.881Z,11.27
2024-03-16T00:30:13.568Z,11.22
2024-03-16T00:32:42.026Z,11.19
2024-03-16T00:35:11.214Z,11.11
2024-03-16T00:37:39.666Z,11.12
2024-03-16T00:40:09.542Z,11.17
2024-03-16T00:42:37.963Z,11.13
2024-03-16T00:45:06.809Z,11.05
2024-03-16T00:47:35.237Z,11.11
2024-03-16T00:50:03.862Z,11.09
2024-03-16T00:52:32.317Z,11.08
2024-03-16T00:55:00.665Z,11.04
2024-03-16T00:57:29.939Z,11.00
2024-03-16T00:59:58.565Z,10.97
2024-03-16T01:02:26.908Z,10.93
2024-03-16T01:04:55.280Z,10.93
2024-03-16T01:07:23.773Z,10.89
2024-03-16T01:09:52.267Z,10.89
2024-03-16T01:12:20.587Z,10.84
2024-03-16T01:14:49.002Z,10.85
2024-03-16T01:17:17.502Z,10.77
2024-03-16T01:19:46.500Z,10.83
2024-03-16T01:22:15.039Z,10.85
2024-03-16T01:24:43.424Z,10.80
2024-03-16T01:27:11.802Z,10.74
2024-03-16T01:29:40.161Z,10.71
2024-03-16T01:32:09.850Z,10.73
2024-03-16T01:34:38.248Z,10.71
2024-03-16T01:37:06.819Z,10.64
2024-03-16T01:39:35.369Z,10.64
2024-03-16T01:42:04.567Z,10.59
2024-03-16T01:44:32.945Z,10.57
2024-03-16T01:47:01.292Z,10.66
2024-03-16T01:49:30.173Z,10.62
2024-03-16T01:51:58.611Z,10.55
2024-03-16T01:54:27.094Z,10.51
2024-03-16T01:56:55.531Z,10.53
2024-03-16T01:59:24.091Z,10.53
2024-03-16T02:01:52.440Z,10.49
2024-03-16T02:04:20.837Z,9.83
2024-03-16T02:06:50.555Z,9.31
2024-03-16T02:09:20.286Z,9.18
2024-03-16T02:11:51.024Z,9.11
2024-03-16T02:14:19.479Z,9.08
2024-03-16T02:16:49.229Z,8.90
2024-03-16T02:19:17.654Z,8.86
2024-03-16T02:21:45.971Z,8.87
2024-03-16T02:24:14.468Z,8.82
2024-03-16T02:26:43.642Z,8.89
2024-03-16T02:29:12.887Z,8.92
2024-03-16T02:31:41.209Z,8.87
2024-03-16T02:34:09.704Z,8.92
2024-03-16T02:36:38.063Z,8.95
2024-03-16T02:39:06.617Z,8.95
2024-03-16T02:41:34.902Z,9.00
2024-03-16T02:44:03.651Z,8.91
2024-03-16T02:46:31.971Z,8.76
2024-03-16T02:49:00.489Z,8.91
2024-03-16T02:51:28.882Z,8.91
2024-03-16T02:53:57.907Z,8.73
2024-03-16T02:56:26.224Z,8.75
2024-03-16T02:58:54.545Z,8.72
2024-03-16T03:01:23.049Z,8.70
2024-03-16T03:03:51.523Z,8.72
2024-03-16T03:06:19.948Z,8.80
2024-03-16T03:08:49.375Z,8.76
2024-03-16T03:11:17.814Z,8.85
2024-03-16T03:13:48.584Z,8.79
2024-03-16T03:16:20.307Z,8.76
2024-03-16T03:18:48.794Z,8.87
2024-03-16T03:21:17.218Z,8.82
2024-03-16T03:23:45.558Z,8.73
2024-03-16T03:26:13.862Z,8.77
2024-03-16T03:28:41.238Z,8.76
2024-03-16T03:31:09.626Z,8.85
2024-03-16T03:33:38.132Z,8.78
2024-03-16T03:36:06.989Z,8.76
2024-03-16T03:38:34.373Z,8.79
2024-03-16T03:41:02.806Z,8.83
2024-03-16T03:43:31.926Z,8.79
2024-03-16T03:46:00.512Z,8.78
2024-03-16T03:48:42.353Z,8.63
2024-03-16T03:51:11.126Z,8.66
2024-03-16T03:53:39.410Z,8.72
2024-03-16T03:56:07.760Z,8.67
2024-03-16T03:58:36.054Z,8.57
2024-03-16T04:01:04.637Z,8.52
2024-03-16T04:03:33.102Z,8.51
2024-03-16T04:06:01.513Z,8.52
2024-03-16T04:08:29.769Z,8.53
2024-03-16T04:10:58.173Z,8.59
2024-03-16T04:13:26.528Z,8.53
2024-03-16T04:15:54.888Z,8.44
2024-03-16T04:18:23.217Z,8.41
2024-03-16T04:20:51.607Z,8.43
2024-03-16T04:23:19.875Z,8.36
2024-03-16T04:25:48.322Z,8.36
2024-03-16T04:28:17.783Z,8.38
2024-03-16T04:30:46.775Z,8.32
2024-03-16T04:33:16.885Z,8.32
2024-03-16T04:35:46.804Z,8.37
2024-03-16T04:38:15.238Z,8.36
2024-03-16T04:40:43.916Z,8.42
2024-03-16T04:43:12.361Z,8.37
2024-03-16T04:45:40.865Z,8.39
2024-03-16T04:48:09.401Z,8.53
2024-03-16T04:50:38.396Z,8.45
2024-03-16T04:53:06.692Z,8.33
2024-03-16T04:55:36.142Z,8.31
2024-03-16T04:58:05.900Z,8.44
2024-03-16T05:00:34.408Z,8.32
2024-03-16T05:03:02.685Z,8.28
2024-03-16T05:05:31.072Z,8.31
2024-03-16T05:07:59.441Z,8.34
2024-03-16T05:10:28.020Z,8.32
2024-03-16T05:12:56.438Z,8.31
2024-03-16T05:15:24.863Z,8.33
2024-03-16T05:17:53.370Z,8.29
2024-03-16T05:20:22.869Z,8.30
2024-03-16T05:22:51.220Z,8.27
2024-03-16T05:25:19.984Z,8.28
2024-03-16T05:27:48.415Z,8.32
2024-03-16T05:30:16.847Z,8.32
2024-03-16T05:32:45.195Z,8.33
2024-03-16T05:35:14.233Z,8.31
2024-03-16T05:37:42.523Z,8.38
2024-03-16T05:40:12.402Z,8.36
2024-03-16T05:42:40.996Z,8.34
2024-03-16T05:45:09.820Z,8.35
2024-03-16T05:47:38.216Z,8.29
2024-03-16T05:50:07.146Z,8.32
2024-03-16T05:52:36.621Z,8.31
2024-03-16T05:55:05.319Z,8.38
2024-03-16T05:57:33.882Z,8.37
2024-03-16T06:00:02.249Z,8.37
2024-03-16T06:02:40.659Z,8.32
2024-03-16T06:05:10.581Z,8.37
2024-03-16T06:07:38.981Z,8.33
2024-03-16T06:10:10.848Z,8.29
2024-03-16T06:12:39.353Z,8.22
2024-03-16T06:15:08.138Z,8.09
2024-03-16T06:17:36.561Z,7.96
2024-03-16T06:20:06.724Z,7.92
2024-03-16T06:22:35.442Z,7.97
2024-03-16T06:25:04.198Z,7.90
2024-03-16T06:27:32.550Z,7.88
2024-03-16T06:30:01.830Z,7.82
2024-03-16T06:32:35.578Z,7.86
2024-03-16T06:35:05.527Z,7.91
2024-03-16T06:37:33.866Z,7.90
2024-03-16T06:40:02.205Z,7.87
2024-03-16T06:42:30.631Z,7.90
2024-03-16T06:44:59.020Z,7.92
2024-03-16T06:47:28.607Z,7.96
2024-03-16T06:49:56.882Z,7.97
2024-03-16T06:52:26.566Z,7.91
2024-03-16T06:54:54.955Z,7.86
2024-03-16T06:57:23.277Z,7.87
2024-03-16T06:59:51.664Z,7.94
2024-03-16T07:02:20.026Z,8.19
2024-03-16T07:04:48.378Z,8.00
2024-03-16T07:07:16.812Z,8.15
2024-03-16T07:09:45.270Z,8.16
2024-03-16T07:12:13.621Z,8.22
2024-03-16T07:14:41.994Z,8.27
2024-03-16T07:17:10.465Z,8.32
2024-03-16T07:19:38.824Z,8.36
2024-03-16T07:22:07.235Z,8.31
2024-03-16T07:24:35.809Z,8.39
2024-03-16T07:27:04.192Z,8.49
2024-03-16T07:29:32.520Z,8.52
2024-03-16T07:32:00.855Z,8.59
2024-03-16T07:34:29.541Z,8.68
2024-03-16T07:37:00.222Z,8.76
2024-03-16T07:39:28.937Z,8.81
2024-03-16T07:41:57.304Z,9.04
2024-03-16T07:44:25.657Z,9.32
2024-03-16T07:46:53.987Z,9.23
2024-03-16T07:49:22.411Z,9.05
2024-03-16T07:51:50.829Z,9.16
2024-03-16T07:54:19.399Z,9.17
2024-03-16T07:56:49.730Z,9.23
2024-03-16T07:59:20.872Z,9.25
2024-03-16T08:01:49.332Z,9.20
2024-03-16T08:04:18.477Z,9.32
2024-03-16T08:06:49.941Z,9.19
2024-03-16T08:09:18.453Z,9.14
2024-03-16T08:11:47.032Z,9.02
2024-03-16T08:14:15.537Z,9.16
2024-03-16T08:16:43.846Z,8.87
2024-03-16T08:19:12.418Z,8.95
2024-03-16T08:21:40.989Z,9.02
2024-03-16T08:24:09.391Z,9.23
2024-03-16T08:26:37.712Z,9.15
2024-03-16T08:29:06.412Z,9.04
2024-03-16T08:31:35.175Z,9.24
2024-03-16T08:34:03.623Z,9.27
2024-03-16T08:36:32.788Z,9.69
2024-03-16T08:39:04.128Z,9.91
2024-03-16T08:41:32.572Z,9.68
2024-03-16T08:44:00.911Z,9.63
2024-03-16T08:46:30.311Z,9.63
2024-03-16T08:48:58.918Z,9.44
2024-03-16T08:51:27.492Z,9.33
2024-03-16T08:53:55.802Z,9.11
2024-03-16T08:56:27.215Z,9.08
2024-03-16T08:58:55.634Z,9.44
2024-03-16T09:01:24.016Z,9.59
2024-03-16T09:03:52.507Z,9.67
2024-03-16T09:06:20.851Z,9.93
2024-03-16T09:08:49.224Z,9.98
2024-03-16T09:11:17.978Z,10.27
2024-03-16T09:13:47.492Z,10.06
2024-03-16T09:16:16.005Z,10.16
2024-03-16T09:18:44.440Z,10.10
2024-03-16T09:21:12.767Z,10.20
2024-03-16T09:23:41.167Z,10.20
2024-03-16T09:26:09.665Z,10.23
2024-03-16T09:28:38.094Z,10.27
2024-03-16T09:31:11.478Z,10.67
2024-03-16T09:33:39.962Z,10.86
2024-03-16T09:36:08.426Z,10.78
2024-03-16T09:38:37.392Z,10.42
2024-03-16T09:41:05.878Z,10.07
